Time;durP1;ratioP1;P1;durP2;ratioP2;P2;SDS_P1;SDS_P2;PMS_P1;PMS_P2;Temp;Humidity;BMP_temperature;BMP_pressure;BME280_temperature;BME280_humidity;BME280_pressure;Samples;Min_cycle;Max_cycle;Signal;HPM_P1;HPM_P2
2023/12/09 00:02:09;;;;;;;1349.05;999.90;;;27.50;99.90;;;;;;5015189;28;20041;-67
2023/12/09 00:04:35;;;;;;;1356.72;999.90;;;27.50;99.90;;;;;;5015063;28;20018;-67
2023/12/09 00:07:02;;;;;;;1325.93;999.90;;;27.50;99.90;;;;;;5015057;28;20374;-67
2023/12/09 00:09:29;;;;;;;1354.63;999.90;;;27.50;99.90;;;;;;5015250;28;20361;-66
2023/12/09 00:11:56;;;;;;;1368.10;999.90;;;27.50;99.90;;;;;;5015093;28;20029;-66
2023/12/09 00:14:22;;;;;;;1347.70;999.90;;;27.50;99.90;;;;;;5014976;28;20061;-66
2023/12/09 00:16:49;;;;;;;1360.15;999.90;;;27.60;99.90;;;;;;5014857;28;20033;-67
2023/12/09 00:19:15;;;;;;;1365.15;999.90;;;27.60;99.90;;;;;;5014697;28;20409;-68
2023/12/09 00:21:42;;;;;;;1368.05;999.90;;;27.60;99.90;;;;;;5015176;28;20072;-67
2023/12/09 00:24:08;;;;;;;1362.57;999.90;;;27.60;99.90;;;;;;5014693;28;20076;-67
2023/12/09 00:26:35;;;;;;;1364.55;999.90;;;27.50;99.90;;;;;;5014677;28;20068;-66
2023/12/09 00:29:01;;;;;;;1345.82;999.90;;;27.50;99.90;;;;;;5014693;28;20037;-67
2023/12/09 00:31:28;;;;;;;1369.85;999.90;;;27.50;99.90;;;;;;5014546;28;20489;-68
2023/12/09 00:33:55;;;;;;;1362.72;999.90;;;27.60;99.90;;;;;;5014012;28;20374;-66
2023/12/09 00:36:22;;;;;;;1347.28;999.90;;;27.70;99.90;;;;;;5014693;28;20608;-67
2023/12/09 00:38:48;;;;;;;1365.25;999.90;;;27.70;99.90;;;;;;5014813;28;20033;-67
2023/12/09 00:41:15;;;;;;;1346.43;999.90;;;27.70;99.90;;;;;;5014421;28;20030;-67
2023/12/09 00:43:41;;;;;;;1345.88;999.90;;;27.70;99.90;;;;;;5014281;28;20021;-67
2023/12/09 00:46:08;;;;;;;1371.32;999.90;;;27.70;99.90;;;;;;5014546;28;20014;-67
2023/12/09 00:48:34;;;;;;;1348.18;999.90;;;27.70;99.90;;;;;;5014333;28;20029;-67
2023/12/09 00:51:01;;;;;;;1351.93;999.90;;;27.70;99.90;;;;;;5014191;28;20061;-67
2023/12/09 00:53:27;;;;;;;1342.70;999.90;;;27.70;99.90;;;;;;5014277;28;20030;-67
2023/12/09 00:55:54;;;;;;;1408.50;999.90;;;27.70;99.90;;;;;;5014345;28;20531;-68
2023/12/09 00:58:20;;;;;;;1346.10;999.90;;;27.80;99.90;;;;;;5013822;28;20131;-67
2023/12/09 01:00:47;;;;;;;1345.97;999.90;;;27.80;99.90;;;;;;5014269;28;20029;-67
2023/12/09 01:03:13;;;;;;;1305.97;999.90;;;27.80;99.90;;;;;;5014100;28;20026;-67
2023/12/09 01:05:40;;;;;;;1315.35;999.90;;;27.80;99.90;;;;;;5014111;28;20417;-67
2023/12/09 01:08:06;;;;;;;1354.85;999.90;;;27.90;99.90;;;;;;5014402;28;20547;-68
2023/12/09 01:10:33;;;;;;;1372.40;999.90;;;27.90;99.90;;;;;;5014026;28;20030;-68
2023/12/09 01:12:59;;;;;;;1363.93;999.90;;;27.90;99.90;;;;;;5013769;28;20018;-68
2023/12/09 01:15:26;;;;;;;1322.93;999.90;;;27.80;99.90;;;;;;5014003;28;20022;-67
2023/12/09 01:17:52;;;;;;;1367.25;999.90;;;27.80;99.90;;;;;;5013820;28;20022;-67
2023/12/09 01:20:19;;;;;;;1381.38;999.90;;;27.80;99.90;;;;;;5013753;28;20385;-67
2023/12/09 01:22:45;;;;;;;1351.85;999.90;;;27.80;99.90;;;;;;5013773;28;20607;-67
2023/12/09 01:25:12;;;;;;;1370.88;999.90;;;27.90;99.90;;;;;;5013578;28;20045;-67
2023/12/09 01:27:38;;;;;;;1368.38;999.90;;;28.00;99.90;;;;;;5013695;28;20026;-67
2023/12/09 01:30:06;;;;;;;1362.18;999.90;;;27.90;99.90;;;;;;5013639;28;20072;-67
2023/12/09 01:32:32;;;;;;;1345.72;999.90;;;28.00;99.90;;;;;;5013734;28;20014;-67
2023/12/09 01:34:59;;;;;;;1367.38;999.90;;;28.00;99.90;;;;;;5013483;28;20034;-65
2023/12/09 01:37:25;;;;;;;1369.85;999.90;;;28.00;99.90;;;;;;5013541;28;20025;-66
2023/12/09 01:39:52;;;;;;;1369.28;999.90;;;28.00;99.90;;;;;;5013612;28;20099;-66
2023/12/09 01:42:19;;;;;;;1361.82;999.90;;;28.00;99.90;;;;;;5013941;28;20053;-65
2023/12/09 01:44:45;;;;;;;1363.75;999.90;;;28.10;99.90;;;;;;5012584;28;20112;-67
2023/12/09 01:47:12;;;;;;;1363.95;999.90;;;28.10;99.90;;;;;;5013613;28;20018;-67
2023/12/09 01:49:39;;;;;;;1357.00;999.90;;;28.10;99.90;;;;;;5013394;28;20101;-66
2023/12/09 01:52:06;;;;;;;1365.93;999.90;;;28.00;99.90;;;;;;5013401;28;20040;-65
2023/12/09 01:54:33;;;;;;;1366.05;999.90;;;28.00;99.90;;;;;;5013389;28;20101;-67
2023/12/09 01:57:00;;;;;;;1368.35;999.90;;;27.90;99.90;;;;;;5013369;28;20022;-67
2023/12/09 01:59:27;;;;;;;1371.65;999.90;;;28.00;99.90;;;;;;5013195;28;20034;-67
2023/12/09 02:01:53;;;;;;;1347.68;999.90;;;27.90;99.90;;;;;;5013288;28;20104;-67
2023/12/09 02:04:21;;;;;;;1339.57;999.90;;;27.90;99.90;;;;;;5013234;28;20480;-67
2023/12/09 02:06:47;;;;;;;1345.93;999.90;;;27.80;99.90;;;;;;5013210;28;20022;-67
2023/12/09 02:09:14;;;;;;;1347.78;999.90;;;27.90;99.90;;;;;;5013192;28;20039;-67
2023/12/09 02:11:52;;;;;;;1350.43;999.90;;;27.90;99.90;;;;;;5013165;28;20068;-66
2023/12/09 02:14:29;;;;;;;1334.93;999.90;;;27.80;99.90;;;;;;5013116;28;20126;-66
2023/12/09 02:17:11;;;;;;;1340.30;999.90;;;27.80;99.90;;;;;;5013139;28;20025;-67
2023/12/09 02:19:38;;;;;;;1337.95;999.90;;;27.90;99.90;;;;;;5013202;28;20089;-66
2023/12/09 02:22:06;;;;;;;1312.38;999.90;;;27.90;99.90;;;;;;5019610;28;20101;-65
2023/12/09 02:24:33;;;;;;;1339.97;999.90;;;28.00;99.90;;;;;;5022060;28;20033;-64
2023/12/09 02:27:24;;;;;;;1334.40;999.90;;;28.10;99.90;;;;;;5022806;28;20105;-65
2023/12/09 02:30:14;;;;;;;1338.43;999.90;;;28.10;99.90;;;;;;4914275;29;20072;-65
2023/12/09 02:32:42;;;;;;;1311.13;999.90;;;28.10;99.90;;;;;;4913958;29;20052;-65
2023/12/09 02:35:11;;;;;;;1323.00;999.90;;;28.20;99.90;;;;;;4914335;29;20055;-65
2023/12/09 02:37:39;;;;;;;1341.90;999.90;;;28.30;99.90;;;;;;4914674;29;20531;-65
2023/12/09 02:40:10;;;;;;;1339.22;999.90;;;28.30;99.90;;;;;;4914870;29;20100;-62
2023/12/09 02:42:39;;;;;;;1341.80;999.90;;;28.30;99.90;;;;;;4914403;29;20028;-65
2023/12/09 02:45:08;;;;;;;1317.32;999.90;;;28.30;99.90;;;;;;4914257;29;20128;-64
2023/12/09 02:47:34;;;;;;;1349.43;999.90;;;28.30;99.90;;;;;;4914351;29;20107;-61
2023/12/09 02:50:01;;;;;;;1349.45;999.90;;;28.30;99.90;;;;;;4914353;29;20040;-63
2023/12/09 02:52:27;;;;;;;1381.57;999.90;;;28.30;99.90;;;;;;4914521;29;20021;-64
2023/12/09 02:54:54;;;;;;;1375.28;999.90;;;28.40;99.90;;;;;;4914368;29;20127;-63
2023/12/09 02:57:20;;;;;;;1378.40;999.90;;;28.40;99.90;;;;;;4920892;29;20055;-63
2023/12/09 02:59:47;;;;;;;1375.05;999.90;;;28.40;99.90;;;;;;4948759;28;20096;-65
2023/12/09 03:02:13;;;;;;;1364.15;999.90;;;28.30;99.90;;;;;;4994366;28;20031;-63
2023/12/09 03:04:40;;;;;;;1371.10;999.90;;;28.40;99.90;;;;;;4994420;28;20033;-66
2023/12/09 03:07:06;;;;;;;1354.47;999.90;;;28.40;99.90;;;;;;4994946;28;20385;-65
2023/12/09 03:09:33;;;;;;;1352.35;999.90;;;28.40;99.90;;;;;;4994957;28;20014;-64
2023/12/09 03:11:59;;;;;;;1381.10;999.90;;;28.30;99.90;;;;;;4994770;28;20024;-65
2023/12/09 03:14:26;;;;;;;1346.30;999.90;;;28.20;99.90;;;;;;4996094;28;20449;-64
2023/12/09 03:16:52;;;;;;;1351.38;999.90;;;28.20;99.90;;;;;;4996500;28;20033;-65
2023/12/09 03:19:19;;;;;;;1376.30;999.90;;;28.20;99.90;;;;;;4996265;28;20111;-64
2023/12/09 03:21:46;;;;;;;1365.88;999.90;;;28.20;99.90;;;;;;5007424;28;20071;-68
2023/12/09 03:24:12;;;;;;;1344.10;999.90;;;28.20;99.90;;;;;;5034150;28;20018;-63
2023/12/09 03:26:39;;;;;;;1368.00;999.90;;;28.20;99.90;;;;;;5035386;28;20021;-65
2023/12/09 03:29:05;;;;;;;1374.97;999.90;;;28.20;99.90;;;;;;5035856;28;20032;-64
2023/12/09 03:31:32;;;;;;;1363.80;999.90;;;28.30;99.90;;;;;;5035697;28;20014;-65
2023/12/09 03:33:58;;;;;;;1335.70;999.90;;;28.30;99.90;;;;;;5035159;28;20100;-65
2023/12/09 03:36:25;;;;;;;1351.43;999.90;;;28.40;99.90;;;;;;5033766;28;20033;-64
2023/12/09 03:38:52;;;;;;;1345.05;999.90;;;28.40;99.90;;;;;;5035010;28;20033;-65
2023/12/09 03:41:18;;;;;;;1344.25;999.90;;;28.40;99.90;;;;;;5035353;28;20038;-65
2023/12/09 03:43:45;;;;;;;1369.40;999.90;;;28.30;99.90;;;;;;5035479;28;20021;-62
2023/12/09 03:46:13;;;;;;;1359.75;999.90;;;28.30;99.90;;;;;;5034178;28;20495;-64
2023/12/09 03:48:39;;;;;;;1370.47;999.90;;;28.30;99.90;;;;;;5034974;28;20030;-65
2023/12/09 03:51:06;;;;;;;1365.32;999.90;;;28.20;99.90;;;;;;5035344;28;20391;-63
2023/12/09 03:53:33;;;;;;;1363.55;999.90;;;28.10;99.90;;;;;;5035081;28;20105;-64
2023/12/09 03:55:59;;;;;;;1365.57;999.90;;;28.20;99.90;;;;;;5035007;28;20112;-62
2023/12/09 03:58:26;;;;;;;1363.55;999.90;;;28.10;99.90;;;;;;5034945;28;20107;-63
2023/12/09 04:00:52;;;;;;;1374.53;999.90;;;28.00;99.90;;;;;;5035094;28;20061;-63
2023/12/09 04:03:19;;;;;;;1368.05;999.90;;;28.00;99.90;;;;;;5033685;28;20025;-63
2023/12/09 04:05:45;;;;;;;1352.22;999.90;;;27.90;99.90;;;;;;5023787;28;20030;-69
2023/12/09 04:08:12;;;;;;;1350.63;999.90;;;27.80;99.90;;;;;;5023389;28;20021;-67
2023/12/09 04:10:39;;;;;;;1351.38;999.90;;;27.80;99.90;;;;;;5017213;28;20018;-66
2023/12/09 04:13:05;;;;;;;1349.00;999.90;;;27.80;99.90;;;;;;5026848;28;20025;-64
2023/12/09 04:15:32;;;;;;;1372.50;999.90;;;27.80;99.90;;;;;;5017049;28;20084;-63
2023/12/09 04:17:59;;;;;;;1354.82;999.90;;;27.80;99.90;;;;;;5016792;28;20071;-63
2023/12/09 04:20:25;;;;;;;1345.65;999.90;;;27.90;99.90;;;;;;5014510;28;20484;-62
2023/12/09 04:22:52;;;;;;;1368.60;999.90;;;27.90;99.90;;;;;;5016834;28;20026;-62
2023/12/09 04:25:18;;;;;;;1342.95;999.90;;;28.00;99.90;;;;;;5016960;28;20379;-64
2023/12/09 04:27:45;;;;;;;1341.75;999.90;;;28.10;99.90;;;;;;5012159;28;20018;-63
2023/12/09 04:30:12;;;;;;;1366.53;999.90;;;28.00;99.90;;;;;;5019251;28;20033;-64
2023/12/09 04:32:38;;;;;;;1365.53;999.90;;;28.00;99.90;;;;;;5018431;28;20026;-62
2023/12/09 04:35:06;;;;;;;1363.63;999.90;;;27.90;99.90;;;;;;5013837;28;20120;-63
2023/12/09 04:37:35;;;;;;;1359.55;999.90;;;27.90;99.90;;;;;;5013882;28;20463;-62
2023/12/09 04:40:04;;;;;;;1348.90;999.90;;;27.80;99.90;;;;;;5012402;28;20033;-64
2023/12/09 04:42:31;;;;;;;1365.55;999.90;;;27.80;99.90;;;;;;5014297;28;20034;-63
2023/12/09 04:44:57;;;;;;;1367.38;999.90;;;27.70;99.90;;;;;;5014586;28;20049;-64
2023/12/09 04:47:24;;;;;;;1368.82;999.90;;;27.70;99.90;;;;;;5014456;28;20014;-63
2023/12/09 04:49:51;;;;;;;1349.97;999.90;;;27.70;99.90;;;;;;5013776;28;20041;-64
2023/12/09 04:52:17;;;;;;;1366.65;999.90;;;27.80;99.90;;;;;;5011694;28;20026;-62
2023/12/09 04:54:44;;;;;;;1379.43;999.90;;;27.80;99.90;;;;;;5012291;28;20052;-62
2023/12/09 04:57:10;;;;;;;1374.68;999.90;;;27.80;99.90;;;;;;5011755;28;20130;-63
2023/12/09 04:59:37;;;;;;;1371.70;999.90;;;27.90;99.90;;;;;;5012788;28;20076;-63
2023/12/09 05:02:04;;;;;;;1362.65;999.90;;;27.80;99.90;;;;;;5012803;28;20065;-64
2023/12/09 05:04:30;;;;;;;1337.70;999.90;;;27.90;99.90;;;;;;5012984;28;20041;-64
2023/12/09 05:06:57;;;;;;;1368.03;999.90;;;28.00;99.90;;;;;;5012633;28;20075;-63
2023/12/09 05:09:23;;;;;;;1363.53;999.90;;;28.00;99.90;;;;;;5012551;28;20022;-63
2023/12/09 05:11:50;;;;;;;1360.00;999.90;;;28.00;99.90;;;;;;5012795;28;20160;-63
2023/12/09 05:14:16;;;;;;;1369.25;999.90;;;28.00;99.90;;;;;;5012880;28;20050;-64
2023/12/09 05:16:43;;;;;;;1341.32;999.90;;;28.00;99.90;;;;;;5013726;28;20421;-64
2023/12/09 05:19:09;;;;;;;1339.45;999.90;;;28.00;99.90;;;;;;5013641;28;20157;-64
2023/12/09 05:21:36;;;;;;;1368.00;999.90;;;28.00;99.90;;;;;;5013734;28;20037;-64
2023/12/09 05:24:04;;;;;;;1371.78;999.90;;;28.10;99.90;;;;;;5013633;28;20030;-64
2023/12/09 05:26:31;;;;;;;1362.93;999.90;;;28.10;99.90;;;;;;5013531;28;20440;-63
2023/12/09 05:28:57;;;;;;;1363.60;999.90;;;28.10;99.90;;;;;;5013621;28;20112;-64
2023/12/09 05:31:24;;;;;;;1341.32;999.90;;;28.10;99.90;;;;;;5014007;28;20376;-63
2023/12/09 05:33:51;;;;;;;1342.80;999.90;;;28.20;99.90;;;;;;5013521;28;20088;-62
2023/12/09 05:36:18;;;;;;;1353.00;999.90;;;28.30;99.90;;;;;;5013795;28;20026;-64
2023/12/09 05:38:44;;;;;;;1371.55;999.90;;;28.30;99.90;;;;;;5013609;28;20030;-64
2023/12/09 05:41:11;;;;;;;1377.80;999.90;;;28.30;99.90;;;;;;5013546;28;20026;-63
2023/12/09 05:43:39;;;;;;;1354.13;999.90;;;28.20;99.90;;;;;;5011930;28;20022;-63
2023/12/09 05:46:06;;;;;;;1372.43;999.90;;;28.30;99.90;;;;;;5011502;28;20018;-64
2023/12/09 05:48:33;;;;;;;1386.68;999.90;;;28.30;99.90;;;;;;5012696;28;20025;-64
2023/12/09 05:51:00;;;;;;;1368.25;999.90;;;28.30;99.90;;;;;;5013946;28;20026;-64
2023/12/09 05:53:26;;;;;;;1371.50;999.90;;;28.40;99.90;;;;;;5012719;28;20543;-63
2023/12/09 05:55:53;;;;;;;1365.35;999.90;;;28.40;99.90;;;;;;5011102;28;20037;-63
2023/12/09 05:58:20;;;;;;;1361.07;999.90;;;28.40;99.90;;;;;;5010943;28;20484;-64
2023/12/09 06:00:46;;;;;;;1363.38;999.90;;;28.40;99.90;;;;;;5011476;28;20034;-63
2023/12/09 06:03:13;;;;;;;1371.20;999.90;;;28.40;99.90;;;;;;5012886;28;20384;-63
2023/12/09 06:05:39;;;;;;;1349.70;999.90;;;28.40;99.90;;;;;;5013109;28;20473;-64
2023/12/09 06:08:06;;;;;;;1386.68;999.90;;;28.30;99.90;;;;;;5018486;28;20040;-64
2023/12/09 06:10:32;;;;;;;1355.97;999.90;;;28.30;99.90;;;;;;5026847;28;20101;-63
2023/12/09 06:12:59;;;;;;;1374.35;999.90;;;28.20;99.90;;;;;;5028395;28;20141;-64
2023/12/09 06:15:25;;;;;;;1380.32;999.90;;;28.20;99.90;;;;;;5003961;28;20492;-64
2023/12/09 06:17:52;;;;;;;1373.18;999.90;;;28.20;99.90;;;;;;5023199;28;20033;-63
2023/12/09 06:20:18;;;;;;;1380.70;999.90;;;28.20;99.90;;;;;;5023303;28;20433;-64
2023/12/09 06:22:45;;;;;;;1345.78;999.90;;;28.20;99.90;;;;;;5021574;28;20069;-64
2023/12/09 06:25:11;;;;;;;1368.80;999.90;;;28.20;99.90;;;;;;5023101;28;20484;-63
2023/12/09 06:27:38;;;;;;;1376.35;999.90;;;28.20;99.90;;;;;;5023025;28;20358;-63
2023/12/09 06:30:05;;;;;;;1357.35;999.90;;;28.20;99.90;;;;;;5021598;28;20018;-63
2023/12/09 06:32:32;;;;;;;1378.03;999.90;;;28.20;99.90;;;;;;5025818;28;20100;-63
2023/12/09 06:34:59;;;;;;;1373.45;999.90;;;28.20;99.90;;;;;;5027097;28;20072;-63
2023/12/09 06:37:25;;;;;;;1371.68;999.90;;;28.20;99.90;;;;;;5022915;28;20030;-62
2023/12/09 06:39:51;;;;;;;1359.22;999.90;;;28.30;99.90;;;;;;5024338;28;20419;-62
2023/12/09 06:42:18;;;;;;;1359.05;999.90;;;28.30;99.90;;;;;;5024651;28;20030;-62
2023/12/09 06:44:44;;;;;;;1381.50;999.90;;;28.20;99.90;;;;;;5025103;28;20113;-62
2023/12/09 06:47:11;;;;;;;1378.35;999.90;;;28.20;99.90;;;;;;5026365;28;20030;-63
2023/12/09 06:49:38;;;;;;;1384.53;999.90;;;28.20;99.90;;;;;;5016644;28;20032;-62
2023/12/09 06:52:04;;;;;;;1369.90;999.90;;;28.20;99.90;;;;;;5016814;28;20033;-63
2023/12/09 06:54:31;;;;;;;1371.18;999.90;;;28.20;99.90;;;;;;5016499;28;20116;-66
2023/12/09 06:56:58;;;;;;;1345.47;999.90;;;28.20;99.90;;;;;;5016304;28;20124;-67
2023/12/09 06:59:25;;;;;;;1383.18;999.90;;;28.20;99.90;;;;;;5017383;28;20481;-66
2023/12/09 07:01:56;;;;;;;1353.50;999.90;;;28.20;99.90;;;;;;5035967;28;20029;-65
2023/12/09 07:04:23;;;;;;;1366.22;999.90;;;28.20;99.90;;;;;;5026879;28;20036;-64
2023/12/09 07:06:49;;;;;;;1377.32;999.90;;;28.20;99.90;;;;;;5024745;28;20049;-65
2023/12/09 07:09:16;;;;;;;1359.10;999.90;;;28.20;99.90;;;;;;5026151;28;20028;-63
2023/12/09 07:11:42;;;;;;;1373.25;999.90;;;28.20;99.90;;;;;;5026526;28;20032;-64
2023/12/09 07:14:09;;;;;;;1369.82;999.90;;;28.20;99.90;;;;;;5024436;28;20026;-63
2023/12/09 07:16:37;;;;;;;1370.03;999.90;;;28.10;99.90;;;;;;5022865;28;20364;-64
2023/12/09 07:19:06;;;;;;;1371.10;999.90;;;28.10;99.90;;;;;;5024360;28;20037;-64
2023/12/09 07:21:32;;;;;;;1375.05;999.90;;;28.10;99.90;;;;;;5021841;28;20045;-66
2023/12/09 07:23:59;;;;;;;1377.30;999.90;;;28.10;99.90;;;;;;5036097;28;20201;-67
2023/12/09 07:26:25;;;;;;;1374.30;999.90;;;28.10;99.90;;;;;;5029184;28;20030;-66
2023/12/09 07:28:52;;;;;;;1369.07;999.90;;;28.10;99.90;;;;;;5012603;28;20361;-65
2023/12/09 07:31:19;;;;;;;1341.55;999.90;;;28.10;99.90;;;;;;5012687;28;20049;-64
2023/12/09 07:33:45;;;;;;;1348.50;999.90;;;28.10;99.90;;;;;;5008236;28;20033;-65
2023/12/09 07:36:12;;;;;;;1372.03;999.90;;;28.00;99.90;;;;;;5014776;28;20392;-65
2023/12/09 07:38:38;;;;;;;1367.00;999.90;;;28.00;99.90;;;;;;5015396;28;20029;-66
2023/12/09 07:41:05;;;;;;;1370.82;999.90;;;28.00;99.90;;;;;;5015067;28;20476;-66
2023/12/09 07:43:31;;;;;;;1351.78;999.90;;;28.00;99.90;;;;;;5013620;28;20419;-66
2023/12/09 07:45:58;;;;;;;1373.18;999.90;;;28.00;99.90;;;;;;5013966;28;20034;-66
2023/12/09 07:48:25;;;;;;;1352.32;999.90;;;28.10;99.90;;;;;;5014982;28;20053;-65
2023/12/09 07:50:52;;;;;;;1367.60;999.90;;;28.00;99.90;;;;;;5015002;28;20029;-65
2023/12/09 07:53:18;;;;;;;1372.47;999.90;;;28.10;99.90;;;;;;5015143;28;20072;-65
2023/12/09 07:55:45;;;;;;;1378.53;999.90;;;28.00;99.90;;;;;;5015007;28;20022;-65
2023/12/09 07:58:11;;;;;;;1356.43;999.90;;;28.00;99.90;;;;;;5014750;28;20080;-64
2023/12/09 08:00:38;;;;;;;1375.75;999.90;;;28.00;99.90;;;;;;5015358;28;20022;-66
2023/12/09 08:03:05;;;;;;;1381.57;999.90;;;28.00;99.90;;;;;;5015120;28;20034;-65
2023/12/09 08:05:34;;;;;;;1373.88;999.90;;;28.10;99.90;;;;;;5014674;28;20030;-65
2023/12/09 08:08:02;;;;;;;1378.20;999.90;;;28.10;99.90;;;;;;5014243;28;20037;-65
2023/12/09 08:10:28;;;;;;;1351.00;999.90;;;28.10;99.90;;;;;;5014062;28;20092;-66
2023/12/09 08:12:55;;;;;;;1366.40;999.90;;;28.10;99.90;;;;;;5013884;28;20025;-66
2023/12/09 08:15:21;;;;;;;1383.28;999.90;;;28.20;99.90;;;;;;5013931;28;20061;-66
2023/12/09 08:17:48;;;;;;;1351.45;999.90;;;28.20;99.90;;;;;;5013794;28;20036;-65
2023/12/09 08:20:16;;;;;;;1358.03;999.90;;;28.20;99.90;;;;;;5013792;28;20022;-66
2023/12/09 08:22:42;;;;;;;1359.53;999.90;;;28.20;99.90;;;;;;5014209;28;20061;-66
2023/12/09 08:25:09;;;;;;;1359.38;999.90;;;28.20;99.90;;;;;;5014502;28;20030;-65
2023/12/09 08:27:38;;;;;;;1376.75;999.90;;;28.20;99.90;;;;;;5014552;28;20018;-65
2023/12/09 08:30:10;;;;;;;1380.85;999.90;;;28.10;99.90;;;;;;5014580;28;20022;-66
2023/12/09 08:32:39;;;;;;;1380.97;999.90;;;28.20;99.90;;;;;;5014579;28;20365;-66
2023/12/09 08:35:07;;;;;;;1356.10;999.90;;;28.20;99.90;;;;;;5014296;28;20037;-66
2023/12/09 08:37:33;;;;;;;1362.18;999.90;;;28.20;99.90;;;;;;5014428;28;20022;-66
2023/12/09 08:40:12;;;;;;;1387.50;999.90;;;28.30;99.90;;;;;;5014611;28;20472;-66
2023/12/09 08:42:41;;;;;;;1386.25;999.90;;;28.30;99.90;;;;;;5014360;28;20108;-66
2023/12/09 08:45:11;;;;;;;1384.60;999.90;;;28.30;99.90;;;;;;5014327;28;20076;-66
2023/12/09 08:47:38;;;;;;;1382.70;999.90;;;28.30;99.90;;;;;;5014169;28;20498;-65
2023/12/09 08:50:06;;;;;;;1370.28;999.90;;;28.30;99.90;;;;;;5014218;28;20500;-66
2023/12/09 08:52:33;;;;;;;1383.72;999.90;;;28.40;99.90;;;;;;5014201;28;20033;-66
2023/12/09 08:55:00;;;;;;;1361.72;999.90;;;28.40;99.90;;;;;;5013519;28;20396;-65
2023/12/09 08:57:27;;;;;;;1373.32;999.90;;;28.40;99.90;;;;;;5013947;28;20062;-66
2023/12/09 08:59:53;;;;;;;1360.68;999.90;;;28.40;99.90;;;;;;5014042;28;20033;-66
2023/12/09 09:02:21;;;;;;;1382.45;999.90;;;28.40;99.90;;;;;;5013977;28;20036;-66
2023/12/09 09:04:48;;;;;;;1374.72;999.90;;;28.40;99.90;;;;;;5013900;28;20029;-67
2023/12/09 09:07:15;;;;;;;1374.28;999.90;;;28.40;99.90;;;;;;5014078;28;20380;-67
2023/12/09 09:09:41;;;;;;;1376.55;999.90;;;28.40;99.90;;;;;;5013618;28;20038;-67
2023/12/09 09:12:08;;;;;;;1381.50;999.90;;;28.40;99.90;;;;;;5013841;28;20033;-67
2023/12/09 09:14:36;;;;;;;1355.72;999.90;;;28.50;99.90;;;;;;5013791;28;20030;-67
2023/12/09 09:17:05;;;;;;;1381.90;999.90;;;28.50;99.90;;;;;;5013475;28;20108;-67
2023/12/09 09:19:32;;;;;;;1392.38;999.90;;;28.50;99.90;;;;;;5013940;28;20030;-67
2023/12/09 09:21:59;;;;;;;1369.70;999.90;;;28.50;99.90;;;;;;5013699;28;20439;-68
2023/12/09 09:24:25;;;;;;;1390.20;999.90;;;28.50;99.90;;;;;;5004792;28;20034;-66
2023/12/09 09:26:52;;;;;;;1385.40;999.90;;;28.50;99.90;;;;;;4996941;28;20033;-66
2023/12/09 09:29:19;;;;;;;1369.15;999.90;;;28.60;99.90;;;;;;4993886;28;20466;-66
2023/12/09 09:31:45;;;;;;;1389.85;999.90;;;28.60;99.90;;;;;;4993907;28;20026;-66
2023/12/09 09:34:12;;;;;;;1378.60;999.90;;;28.60;99.90;;;;;;4994216;28;20038;-67
2023/12/09 09:36:38;;;;;;;1394.65;999.90;;;28.60;99.90;;;;;;4993988;28;20034;-66
2023/12/09 09:39:06;;;;;;;1382.95;999.90;;;28.60;99.90;;;;;;4994137;28;20026;-65
2023/12/09 09:41:39;;;;;;;1397.03;999.90;;;28.60;99.90;;;;;;4993925;28;20030;-65
2023/12/09 09:44:14;;;;;;;1391.90;999.90;;;28.50;99.90;;;;;;4993824;28;20034;-64
2023/12/09 09:46:41;;;;;;;1367.63;999.90;;;28.50;99.90;;;;;;4993714;28;20370;-64
2023/12/09 09:49:11;;;;;;;1391.28;999.90;;;28.50;99.90;;;;;;4994074;28;20026;-65
2023/12/09 09:51:41;;;;;;;1392.30;999.90;;;28.50;99.90;;;;;;4993755;28;20026;-65
2023/12/09 09:54:15;;;;;;;1389.60;999.90;;;28.50;99.90;;;;;;4995119;28;20466;-66
2023/12/09 09:56:43;;;;;;;1386.20;999.90;;;28.60;99.90;;;;;;5004709;28;20105;-65
2023/12/09 09:59:11;;;;;;;1389.90;999.90;;;28.60;99.90;;;;;;5014988;28;20416;-65
2023/12/09 10:01:38;;;;;;;1356.30;999.90;;;28.60;99.90;;;;;;5018601;28;20032;-66
2023/12/09 10:04:04;;;;;;;1391.35;999.90;;;28.60;99.90;;;;;;5020658;28;20017;-65
2023/12/09 10:06:31;;;;;;;1385.03;999.90;;;28.60;99.90;;;;;;5021482;28;20037;-63
2023/12/09 10:08:58;;;;;;;1389.00;999.90;;;28.60;99.90;;;;;;5027326;28;20507;-63
2023/12/09 10:11:25;;;;;;;1368.22;999.90;;;28.60;99.90;;;;;;5022890;28;20139;-65
2023/12/09 10:13:51;;;;;;;1384.65;999.90;;;28.60;99.90;;;;;;5021654;28;20029;-66
2023/12/09 10:16:18;;;;;;;1372.07;999.90;;;28.60;99.90;;;;;;5027688;28;20029;-65
2023/12/09 10:18:47;;;;;;;1377.47;999.90;;;28.60;99.90;;;;;;5027623;28;20041;-65
2023/12/09 10:21:15;;;;;;;1425.65;999.90;;;28.60;99.90;;;;;;5021126;28;20033;-66
2023/12/09 10:23:44;;;;;;;1433.95;999.90;;;28.60;99.90;;;;;;5023700;28;20049;-66
2023/12/09 10:26:10;;;;;;;1538.00;999.90;;;28.70;99.90;;;;;;5019817;28;20484;-66
2023/12/09 10:28:37;;;;;;;1602.63;999.90;;;28.80;99.90;;;;;;5021889;28;20018;-64
2023/12/09 10:31:04;;;;;;;1702.03;999.90;;;28.80;99.90;;;;;;5029391;28;20435;-65
2023/12/09 10:33:32;;;;;;;1600.95;999.90;;;28.70;99.90;;;;;;5027849;28;20097;-65
2023/12/09 10:36:00;;;;;;;1505.80;999.90;;;28.60;99.90;;;;;;5024543;28;20164;-66
2023/12/09 10:38:30;;;;;;;1475.30;999.90;;;28.50;99.90;;;;;;5018127;28;20148;-67
2023/12/09 10:40:57;;;;;;;1491.28;999.90;;;28.50;99.90;;;;;;5033272;28;20100;-66
2023/12/09 10:43:25;;;;;;;1516.43;999.90;;;28.60;99.90;;;;;;5010124;28;20038;-65
2023/12/09 10:45:51;;;;;;;1594.38;999.90;;;28.50;99.90;;;;;;5017296;28;20421;-64
2023/12/09 10:48:18;;;;;;;1570.35;999.90;;;28.60;99.90;;;;;;5017443;28;20560;-65
2023/12/09 10:50:46;;;;;;;1538.07;999.90;;;28.60;99.90;;;;;;5017437;28;20049;-65
2023/12/09 10:53:12;;;;;;;1562.75;999.90;;;28.60;99.90;;;;;;5017483;28;20038;-65
2023/12/09 10:55:39;;;;;;;1472.07;999.90;;;28.50;99.90;;;;;;5025830;28;20037;-65
2023/12/09 10:58:06;;;;;;;1534.53;999.90;;;28.50;99.90;;;;;;5017664;28;20050;-63
2023/12/09 11:00:36;;;;;;;1523.00;999.90;;;28.50;99.90;;;;;;5021076;28;20030;-65
2023/12/09 11:03:03;;;;;;;1542.75;999.90;;;28.40;99.90;;;;;;5021250;28;20041;-64
2023/12/09 11:05:35;;;;;;;1405.22;999.90;;;28.40;99.90;;;;;;5020155;28;20034;-65
2023/12/09 11:08:02;;;;;;;1373.93;999.90;;;28.30;99.90;;;;;;5022880;28;20048;-64
2023/12/09 11:10:28;;;;;;;1464.07;999.90;;;28.30;99.90;;;;;;5026662;28;20476;-65
2023/12/09 11:12:55;;;;;;;1496.30;999.90;;;28.20;99.90;;;;;;5022632;28;20033;-67
2023/12/09 11:15:29;;;;;;;1422.97;999.90;;;28.20;99.90;;;;;;5024461;28;20034;-63
2023/12/09 11:18:06;;;;;;;1379.15;999.90;;;28.20;99.90;;;;;;5019539;28;20357;-64
2023/12/09 11:20:33;;;;;;;1549.80;999.90;;;28.20;99.90;;;;;;5024887;28;20025;-65
2023/12/09 11:23:00;;;;;;;1550.30;999.90;;;28.10;99.90;;;;;;5022220;28;20358;-64
2023/12/09 11:25:28;;;;;;;1536.47;999.90;;;28.20;99.90;;;;;;5021155;28;20033;-63
2023/12/09 11:27:58;;;;;;;1535.32;999.90;;;28.20;99.90;;;;;;5022097;28;20431;-63
2023/12/09 11:30:37;;;;;;;1536.00;999.90;;;28.20;99.90;;;;;;5026506;28;20023;-64
2023/12/09 11:33:05;;;;;;;1472.43;999.90;;;28.20;99.90;;;;;;5018834;28;20133;-63
2023/12/09 11:35:33;;;;;;;1505.30;999.90;;;28.30;99.90;;;;;;5015587;28;20360;-65
2023/12/09 11:38:01;;;;;;;1466.68;999.90;;;28.30;99.90;;;;;;5015729;28;20113;-64
2023/12/09 11:40:29;;;;;;;1365.53;999.90;;;28.30;99.90;;;;;;5026450;28;20036;-65
2023/12/09 11:42:59;;;;;;;1389.30;999.90;;;28.30;99.90;;;;;;5025419;28;20441;-64
2023/12/09 11:45:28;;;;;;;1374.82;999.90;;;28.30;99.90;;;;;;5023830;28;20033;-63
2023/12/09 11:47:55;;;;;;;1392.18;999.90;;;28.30;99.90;;;;;;5034219;28;20041;-65
2023/12/09 11:50:21;;;;;;;1385.53;999.90;;;28.30;99.90;;;;;;5035055;28;20104;-66
2023/12/09 11:52:49;;;;;;;1374.18;999.90;;;28.30;99.90;;;;;;5033213;28;20064;-66
2023/12/09 11:55:17;;;;;;;1378.75;999.90;;;28.30;99.90;;;;;;5013722;28;20022;-67
2023/12/09 11:57:44;;;;;;;1375.60;999.90;;;28.30;99.90;;;;;;5001426;28;20049;-66
2023/12/09 12:00:12;;;;;;;1387.65;999.90;;;28.30;99.90;;;;;;5015270;28;20033;-66